Terminal Aerodrome Forecast
Issued by NWS Shreveport, LA

Home | Current Version | Previous Version | Text Only | Print | Product List | Glossary On
Versions: 1 2 3 4 5 6 7 8 9 10 11 12 13 14
000
FTUS44 KSHV 301100 RRA
TAFLFK
TAF
KLFK 301154Z 3012/0112 VRB03KT P6SM SCT050 BKN090
      TEMPO 3012/3014 5SM BR BKN050 OVC090
     FM301500 12005KT P6SM SCT045 OVC080
     FM010000 14004KT P6SM VCSH BKN045 OVC070
     FM010200 14003KT P6SM BKN040
     FM010700 14003KT 5SM BR OVC015=

USA.gov is the U.S. government's official web portal to all federal, state and local government web resources and services.